Mount Ida, Arkansas
Current Conditions -  °F | °C
As of 3:53 PM on Wednesday 22 Oct 2014 (Local Time) from KMWT Reporting Station
Clear Clear  
Wind Chill: 73°   Ceiling: Unl
Heat Index: 73°   Visibility: 10mi
Dew Point: 52°   Wind: 3mph
Humidity: 48%   Direction: NA
Pressure: 30.13"   Gusts: NA
Location:  34.56°N, 93.63°W
Report Text: KMWT 222053Z AUTO VRB03KT 10SM CLR 23/11 A3013 RMK AO2 SLP200 T02280111 56018
Loading
Personal Weather Stations






























Interactive Weather Map
Tropical Storm Tracking
New forecast layout! Learn more

10-Day Weather Forecast

Advertisements
Track Severe Weather on mobile